createdAt,value
2024-03-10T00:02:16.558Z,15.20
2024-03-10T00:04:45.967Z,14.02
2024-03-10T00:07:12.677Z,13.38
2024-03-10T00:09:39.449Z,13.40
2024-03-10T00:12:06.626Z,13.27
2024-03-10T00:14:34.580Z,12.93
2024-03-10T00:17:01.388Z,12.65
2024-03-10T00:19:29.772Z,12.85
2024-03-10T00:21:56.540Z,13.77
2024-03-10T00:24:23.326Z,12.65
2024-03-10T00:26:53.041Z,13.10
2024-03-10T00:29:20.007Z,14.77
2024-03-10T00:31:47.013Z,14.20
2024-03-10T00:34:13.799Z,14.65
2024-03-10T00:36:40.578Z,11.55
2024-03-10T00:39:07.370Z,14.30
2024-03-10T00:41:34.108Z,14.98
2024-03-10T00:44:00.945Z,14.52
2024-03-10T00:46:27.714Z,14.55
2024-03-10T00:48:54.584Z,14.40
2024-03-10T00:51:21.373Z,14.82
2024-03-10T00:53:48.195Z,12.13
2024-03-10T00:56:15.045Z,12.73
2024-03-10T00:58:45.027Z,12.38
2024-03-10T01:01:11.885Z,13.82
2024-03-10T01:03:41.418Z,14.30
2024-03-10T01:06:08.233Z,13.65
2024-03-10T01:08:35.076Z,14.30
2024-03-10T01:11:02.020Z,14.95
2024-03-10T01:13:28.935Z,15.75
2024-03-10T01:15:56.696Z,16.35
2024-03-10T01:18:23.528Z,16.10
2024-03-10T01:20:50.566Z,16.42
2024-03-10T01:23:17.476Z,17.52
2024-03-10T01:25:45.216Z,18.17
2024-03-10T01:28:11.962Z,18.92
2024-03-10T01:30:38.903Z,18.35
2024-03-10T01:33:09.205Z,19.33
2024-03-10T01:35:38.604Z,19.27
2024-03-10T01:38:05.444Z,18.30
2024-03-10T01:40:32.184Z,17.73
2024-03-10T01:42:58.932Z,20.52
2024-03-10T01:45:25.896Z,17.95
2024-03-10T01:47:56.005Z,18.73
2024-03-10T01:50:23.056Z,18.45
2024-03-10T01:52:49.921Z,17.20
2024-03-10T01:55:23.376Z,17.00
2024-03-10T01:57:54.129Z,19.58
2024-03-10T02:00:23.545Z,15.95
2024-03-10T02:02:50.968Z,16.17
2024-03-10T02:05:18.438Z,17.55
2024-03-10T02:07:45.390Z,18.30
2024-03-10T02:10:12.416Z,16.90
2024-03-10T02:12:42.869Z,18.73
2024-03-10T02:15:09.811Z,19.77
2024-03-10T02:17:36.580Z,17.73
2024-03-10T02:20:04.680Z,18.25
2024-03-10T02:22:32.082Z,20.23
2024-03-10T02:25:03.294Z,19.35
2024-03-10T02:27:30.578Z,19.80
2024-03-10T02:30:00.296Z,20.90
2024-03-10T02:32:28.560Z,19.90
2024-03-10T02:34:58.385Z,22.20
2024-03-10T02:37:25.231Z,21.05
2024-03-10T02:39:52.049Z,22.73
2024-03-10T02:42:18.806Z,21.25
2024-03-10T02:44:45.581Z,22.10
2024-03-10T02:47:12.422Z,22.23
2024-03-10T02:49:43.271Z,23.75
2024-03-10T02:52:15.863Z,23.48
2024-03-10T02:54:42.634Z,23.73
2024-03-10T02:57:11.959Z,23.48
2024-03-10T02:59:38.750Z,22.05
2024-03-10T03:02:05.794Z,22.10
2024-03-10T03:04:32.734Z,23.00
2024-03-10T03:06:59.586Z,25.15
2024-03-10T03:09:26.434Z,23.30
2024-03-10T03:11:53.175Z,24.00
2024-03-10T03:14:20.030Z,24.45
2024-03-10T03:16:47.269Z,21.83
2024-03-10T03:19:14.060Z,24.13
2024-03-10T03:21:44.404Z,24.83
2024-03-10T03:24:11.152Z,23.65
2024-03-10T03:26:38.141Z,25.17
2024-03-10T03:29:05.051Z,25.23
2024-03-10T03:31:33.521Z,24.23
2024-03-10T03:34:00.329Z,23.67
2024-03-10T03:36:27.402Z,23.42
2024-03-10T03:38:54.194Z,23.58
2024-03-10T03:41:23.695Z,21.67
2024-03-10T03:43:50.718Z,23.02
2024-03-10T03:46:20.430Z,24.20
2024-03-10T03:48:47.216Z,23.52
2024-03-10T03:51:16.524Z,23.02
2024-03-10T03:53:43.378Z,24.65
2024-03-10T03:56:12.673Z,23.55
2024-03-10T03:58:39.512Z,23.17
2024-03-10T04:01:06.311Z,22.63
2024-03-10T04:03:33.238Z,24.55
2024-03-10T04:06:00.419Z,24.40
2024-03-10T04:08:27.507Z,24.67
2024-03-10T04:10:54.381Z,26.45
2024-03-10T04:13:21.288Z,25.13
2024-03-10T04:15:48.101Z,26.10
2024-03-10T04:18:14.972Z,27.08
2024-03-10T04:20:41.972Z,27.42
2024-03-10T04:23:08.768Z,27.35
2024-03-10T04:25:36.003Z,27.55
2024-03-10T04:28:02.765Z,28.88
2024-03-10T04:30:29.790Z,27.80
2024-03-10T04:32:59.857Z,27.85
2024-03-10T04:35:27.245Z,27.42
2024-03-10T04:37:54.050Z,30.60
2024-03-10T04:40:20.879Z,29.58
2024-03-10T04:42:50.673Z,29.08
2024-03-10T04:45:18.160Z,30.08
2024-03-10T04:47:45.148Z,30.25
2024-03-10T04:50:12.214Z,32.55
2024-03-10T04:52:39.036Z,33.80
2024-03-10T04:55:06.276Z,31.50
2024-03-10T04:57:33.755Z,31.58
2024-03-10T05:00:04.463Z,33.00
2024-03-10T05:02:31.355Z,33.72
2024-03-10T05:04:58.230Z,28.52
2024-03-10T05:07:25.075Z,30.77
2024-03-10T05:09:51.944Z,33.60
2024-03-10T05:12:18.831Z,33.35
2024-03-10T05:14:45.929Z,34.58
2024-03-10T05:17:12.777Z,34.97
2024-03-10T05:19:42.524Z,38.03
2024-03-10T05:22:09.426Z,38.08
2024-03-10T05:24:36.181Z,35.70
2024-03-10T05:27:02.986Z,36.80
2024-03-10T05:29:29.906Z,33.67
2024-03-10T05:31:59.192Z,33.13
2024-03-10T05:34:25.993Z,32.95
2024-03-10T05:36:53.037Z,31.38
2024-03-10T05:39:22.092Z,34.10
2024-03-10T05:41:48.940Z,32.60
2024-03-10T05:44:15.777Z,32.60
2024-03-10T05:46:42.630Z,33.85
2024-03-10T05:49:09.413Z,31.80
2024-03-10T05:51:39.242Z,29.80
2024-03-10T05:54:14.817Z,28.67
2024-03-10T05:56:41.603Z,30.23
2024-03-10T05:59:08.431Z,27.65
2024-03-10T06:01:37.942Z,27.17
2024-03-10T06:04:04.877Z,28.23
2024-03-10T06:06:31.644Z,27.58
2024-03-10T06:09:02.509Z,26.55
2024-03-10T06:11:32.181Z,25.88
2024-03-10T06:13:59.894Z,24.75
2024-03-10T06:16:29.863Z,23.83
2024-03-10T06:18:58.478Z,22.67
2024-03-10T06:21:28.095Z,22.02
2024-03-10T06:23:54.872Z,20.00
2024-03-10T06:26:22.552Z,18.05
2024-03-10T06:28:50.728Z,17.08
2024-03-10T06:31:18.434Z,15.43
2024-03-10T06:33:45.931Z,15.50
2024-03-10T06:36:13.297Z,15.15
2024-03-10T06:38:41.292Z,14.57
2024-03-10T06:41:12.079Z,13.65
2024-03-10T06:43:39.280Z,15.13
2024-03-10T06:46:08.991Z,13.38
2024-03-10T06:48:36.929Z,12.30
2024-03-10T06:51:04.008Z,11.32
2024-03-10T06:53:30.737Z,12.00
2024-03-10T06:56:00.513Z,10.85
2024-03-10T06:58:32.948Z,12.80
2024-03-10T07:00:59.925Z,11.57
2024-03-10T07:03:27.074Z,10.52
2024-03-10T07:05:53.901Z,10.25
2024-03-10T07:08:20.721Z,11.40
2024-03-10T07:10:47.541Z,10.77
2024-03-10T07:13:14.614Z,11.40
2024-03-10T07:15:41.373Z,11.27
2024-03-10T07:18:08.662Z,11.82
2024-03-10T07:20:35.730Z,10.55
2024-03-10T07:23:05.453Z,10.50
2024-03-10T07:25:37.068Z,10.63
2024-03-10T07:28:04.333Z,10.00
2024-03-10T07:30:31.103Z,10.20
2024-03-10T07:32:57.822Z,10.02
2024-03-10T07:35:24.736Z,10.38
2024-03-10T07:37:52.324Z,10.07
2024-03-10T07:40:21.496Z,10.45
2024-03-10T07:42:48.550Z,10.23
2024-03-10T07:45:16.192Z,9.45
2024-03-10T07:47:45.010Z,10.02
2024-03-10T07:50:19.132Z,8.48
2024-03-10T07:52:47.547Z,8.50
2024-03-10T07:55:14.556Z,9.32
2024-03-10T07:57:43.848Z,8.63
2024-03-10T08:00:11.102Z,9.30
2024-03-10T08:02:42.082Z,9.02
2024-03-10T08:05:08.934Z,9.18
2024-03-10T08:07:35.688Z,8.27
2024-03-10T08:10:02.517Z,7.88
2024-03-10T08:12:29.283Z,8.80
2024-03-10T08:14:56.025Z,7.95
2024-03-10T08:17:25.613Z,7.97
2024-03-10T08:19:52.435Z,8.18
2024-03-10T08:22:19.310Z,7.53
2024-03-10T08:24:46.082Z,7.15
2024-03-10T08:27:13.566Z,7.32
2024-03-10T08:29:43.224Z,6.85
2024-03-10T08:32:10.054Z,7.03
2024-03-10T08:34:39.777Z,6.65
2024-03-10T08:37:06.679Z,6.38
2024-03-10T08:39:33.510Z,6.72
2024-03-10T08:42:00.334Z,5.95
2024-03-10T08:44:27.252Z,7.28
2024-03-10T08:46:54.196Z,7.35
2024-03-10T08:49:21.018Z,6.80
2024-03-10T08:51:47.797Z,5.80
2024-03-10T08:54:20.404Z,5.68
2024-03-10T08:56:47.181Z,6.20
2024-03-10T08:59:14.032Z,6.18
2024-03-10T09:01:40.868Z,5.68
2024-03-10T09:04:07.595Z,5.30
2024-03-10T09:06:37.415Z,5.57
2024-03-10T09:09:04.529Z,5.78
2024-03-10T09:11:33.517Z,5.70
2024-03-10T09:14:00.494Z,5.60
2024-03-10T09:16:27.916Z,5.20
2024-03-10T09:18:54.631Z,5.40
2024-03-10T09:21:24.425Z,5.10
2024-03-10T09:23:51.178Z,5.53
2024-03-10T09:26:17.934Z,5.55
2024-03-10T09:28:45.074Z,5.10
2024-03-10T09:31:15.455Z,4.20
2024-03-10T09:33:45.600Z,4.53
2024-03-10T09:36:13.112Z,3.90
2024-03-10T09:38:41.995Z,4.50
2024-03-10T09:41:10.691Z,4.53
2024-03-10T09:43:39.223Z,4.13
2024-03-10T09:46:06.426Z,4.18
2024-03-10T09:48:33.746Z,4.55
2024-03-10T09:51:01.379Z,4.43
2024-03-10T09:53:28.181Z,4.40
2024-03-10T09:55:55.348Z,4.55
2024-03-10T09:58:40.753Z,4.22
2024-03-10T10:01:14.693Z,4.35
2024-03-10T10:03:44.282Z,3.50
2024-03-10T10:06:14.337Z,3.92
2024-03-10T10:08:41.152Z,4.13
2024-03-10T10:11:08.022Z,4.18
2024-03-10T10:13:34.804Z,3.92
2024-03-10T10:16:02.069Z,4.55
2024-03-10T10:18:31.017Z,3.90
2024-03-10T10:21:02.526Z,3.75
2024-03-10T10:23:29.601Z,4.28
2024-03-10T10:26:16.668Z,3.72
2024-03-10T10:28:43.555Z,3.47
2024-03-10T10:31:15.087Z,4.05
2024-03-10T10:33:46.060Z,3.90
2024-03-10T10:36:13.801Z,3.30
2024-03-10T10:38:45.675Z,3.25
2024-03-10T10:41:13.286Z,3.42
2024-03-10T10:43:43.265Z,3.38
2024-03-10T10:46:11.673Z,2.90
2024-03-10T10:48:41.418Z,3.22
2024-03-10T10:51:08.950Z,3.20
2024-03-10T10:53:37.568Z,3.03
2024-03-10T10:56:04.628Z,3.53
2024-03-10T10:58:33.778Z,3.80
2024-03-10T11:01:01.143Z,3.00
2024-03-10T11:03:28.328Z,3.67
2024-03-10T11:06:04.185Z,3.75
2024-03-10T11:08:31.991Z,3.95
2024-03-10T11:10:59.709Z,3.55
2024-03-10T11:13:26.978Z,3.90
2024-03-10T11:16:10.581Z,4.72
2024-03-10T11:18:38.127Z,3.97
2024-03-10T11:21:07.699Z,4.22
2024-03-10T11:23:40.168Z,5.43
2024-03-10T11:26:15.193Z,4.72
2024-03-10T11:28:51.905Z,5.05
2024-03-10T11:31:38.685Z,4.90
2024-03-10T11:34:08.146Z,4.88
2024-03-10T11:36:40.069Z,5.10
2024-03-10T11:39:07.879Z,4.80
2024-03-10T11:41:37.576Z,5.25
2024-03-10T11:44:05.050Z,4.80
2024-03-10T11:46:33.203Z,4.75
2024-03-10T11:49:01.001Z,4.90
2024-03-10T11:51:33.166Z,5.32
2024-03-10T11:54:01.348Z,4.25
2024-03-10T11:56:28.241Z,4.70
2024-03-10T11:58:55.476Z,5.13
2024-03-10T12:01:22.299Z,5.07
2024-03-10T12:03:49.461Z,5.05
2024-03-10T12:06:17.534Z,5.10
2024-03-10T12:08:47.296Z,5.03
2024-03-10T12:11:14.425Z,5.35
2024-03-10T12:13:49.509Z,5.55
2024-03-10T12:16:16.463Z,5.50
2024-03-10T12:18:46.028Z,5.35
2024-03-10T12:21:17.174Z,4.80
2024-03-10T12:23:45.118Z,4.70
2024-03-10T12:26:14.990Z,5.20
2024-03-10T12:28:44.046Z,5.22
2024-03-10T12:31:21.649Z,4.90
2024-03-10T12:33:48.482Z,4.72
2024-03-10T12:36:15.206Z,4.25
2024-03-10T12:38:42.521Z,3.58
2024-03-10T12:41:11.661Z,3.35
2024-03-10T12:43:38.694Z,2.70
2024-03-10T12:46:05.865Z,1.60
2024-03-10T12:48:35.871Z,1.75
2024-03-10T12:51:04.148Z,1.70
2024-03-10T12:53:37.776Z,1.88
2024-03-10T12:56:05.074Z,1.38
2024-03-10T12:58:31.860Z,1.70
2024-03-10T13:00:58.631Z,1.75
2024-03-10T13:03:25.779Z,1.75
2024-03-10T13:05:55.076Z,1.58
2024-03-10T13:08:23.169Z,1.42
2024-03-10T13:10:50.095Z,1.63
2024-03-10T13:13:16.928Z,2.00
2024-03-10T13:15:43.779Z,1.15
2024-03-10T13:18:11.856Z,1.40
2024-03-10T13:20:47.559Z,1.58
2024-03-10T13:23:14.996Z,1.15
2024-03-10T13:25:44.714Z,1.17
2024-03-10T13:28:11.477Z,1.40
2024-03-10T13:30:38.283Z,1.30
2024-03-10T13:33:05.630Z,1.60
2024-03-10T13:35:32.468Z,1.75
2024-03-10T13:37:59.299Z,1.20
2024-03-10T13:40:26.349Z,1.98
2024-03-10T13:42:55.614Z,1.42
2024-03-10T13:45:27.920Z,1.90
2024-03-10T13:48:03.778Z,1.70
2024-03-10T13:50:30.866Z,1.77
2024-03-10T13:52:57.665Z,1.90
2024-03-10T13:55:24.603Z,1.60
2024-03-10T13:57:53.658Z,1.45
2024-03-10T14:00:24.255Z,1.50
2024-03-10T14:03:03.921Z,1.45
2024-03-10T14:05:31.228Z,1.50
2024-03-10T14:07:58.222Z,1.08
2024-03-10T14:10:25.038Z,1.30
2024-03-10T14:12:51.866Z,1.30
2024-03-10T14:15:18.737Z,1.58
2024-03-10T14:17:46.199Z,1.05
2024-03-10T14:20:16.688Z,1.27
2024-03-10T14:22:48.159Z,1.02
2024-03-10T14:25:15.214Z,0.90
2024-03-10T14:27:51.712Z,1.00
2024-03-10T14:30:19.441Z,0.98
2024-03-10T14:32:46.234Z,1.20
2024-03-10T14:35:15.443Z,1.10
2024-03-10T14:37:44.134Z,1.05
2024-03-10T14:40:14.185Z,1.00
2024-03-10T14:42:41.063Z,1.10
2024-03-10T14:45:07.990Z,0.77
2024-03-10T14:47:34.803Z,0.90
2024-03-10T14:50:05.088Z,1.05
2024-03-10T14:52:32.029Z,0.88
2024-03-10T14:54:58.798Z,0.95
2024-03-10T14:57:25.781Z,1.10
2024-03-10T14:59:52.534Z,1.02
2024-03-10T15:02:19.333Z,0.77
2024-03-10T15:04:46.177Z,1.05
2024-03-10T15:07:13.066Z,1.10
2024-03-10T15:09:39.939Z,1.10
2024-03-10T15:12:07.396Z,0.90
2024-03-10T15:14:34.340Z,0.82
2024-03-10T15:17:02.803Z,1.00
2024-03-10T15:19:29.650Z,1.90
2024-03-10T15:21:59.158Z,1.20
2024-03-10T15:24:25.899Z,1.30
2024-03-10T15:26:52.659Z,1.20
2024-03-10T15:29:22.609Z,1.08
2024-03-10T15:31:49.836Z,0.80
2024-03-10T15:34:16.912Z,0.80
2024-03-10T15:36:43.631Z,1.42
2024-03-10T15:39:10.817Z,1.55
2024-03-10T15:41:37.719Z,0.90
2024-03-10T15:44:04.609Z,0.82
2024-03-10T15:46:31.446Z,0.80
2024-03-10T15:49:00.773Z,0.90
2024-03-10T15:51:27.734Z,1.27
2024-03-10T15:53:57.005Z,1.15
2024-03-10T15:56:23.929Z,0.90
2024-03-10T15:58:54.593Z,1.13
2024-03-10T16:01:23.240Z,0.70
2024-03-10T16:03:58.415Z,0.90
2024-03-10T16:06:25.462Z,0.98
2024-03-10T16:08:52.477Z,1.20
2024-03-10T16:11:22.164Z,1.00
2024-03-10T16:14:11.264Z,1.05
2024-03-10T16:16:38.563Z,1.08
2024-03-10T16:19:05.371Z,1.48
2024-03-10T16:21:35.434Z,1.63
2024-03-10T16:24:02.271Z,1.38
2024-03-10T16:26:29.035Z,1.02
2024-03-10T16:28:55.788Z,1.05
2024-03-10T16:31:22.576Z,1.10
2024-03-10T16:33:49.501Z,0.93
2024-03-10T16:36:16.353Z,1.00
2024-03-10T16:38:43.203Z,1.40
2024-03-10T16:41:10.634Z,1.20
2024-03-10T16:43:38.055Z,1.15
2024-03-10T16:46:04.931Z,1.20
2024-03-10T16:48:31.760Z,1.15
2024-03-10T16:50:58.559Z,1.13
2024-03-10T16:53:25.432Z,0.85
2024-03-10T16:55:52.237Z,1.17
2024-03-10T16:58:19.142Z,1.02
2024-03-10T17:00:45.896Z,1.13
2024-03-10T17:03:12.648Z,1.05
2024-03-10T17:05:42.814Z,1.00
2024-03-10T17:08:09.748Z,1.02
2024-03-10T17:10:45.396Z,1.20
2024-03-10T17:13:13.967Z,1.45
2024-03-10T17:15:40.731Z,1.00
2024-03-10T17:18:07.648Z,1.15
2024-03-10T17:20:38.099Z,1.52
2024-03-10T17:23:05.125Z,1.30
2024-03-10T17:25:35.891Z,2.15
2024-03-10T17:28:08.152Z,2.85
2024-03-10T17:30:35.989Z,5.15
2024-03-10T17:33:04.205Z,5.28
2024-03-10T17:35:31.083Z,5.88
2024-03-10T17:37:57.885Z,2.92
2024-03-10T17:40:24.645Z,4.63
2024-03-10T17:42:55.250Z,5.22
2024-03-10T17:45:22.941Z,4.30
2024-03-10T17:47:49.788Z,4.32
2024-03-10T17:50:16.646Z,4.90
2024-03-10T17:52:43.436Z,4.30
2024-03-10T17:55:10.852Z,3.63
2024-03-10T17:57:37.771Z,3.42
2024-03-10T18:00:06.235Z,3.03
2024-03-10T18:02:34.008Z,2.75
2024-03-10T18:05:01.007Z,2.17
2024-03-10T18:07:28.452Z,2.30
2024-03-10T18:09:55.670Z,2.25
2024-03-10T18:12:22.518Z,2.20
2024-03-10T18:14:53.805Z,1.50
2024-03-10T18:17:20.572Z,2.78
2024-03-10T18:19:49.578Z,2.80
2024-03-10T18:22:16.494Z,2.88
2024-03-10T18:24:46.335Z,1.92
2024-03-10T18:27:13.486Z,2.70
2024-03-10T18:29:43.519Z,3.15
2024-03-10T18:32:10.433Z,3.33
2024-03-10T18:34:37.333Z,2.80
2024-03-10T18:37:04.348Z,3.13
2024-03-10T18:39:31.122Z,2.60
2024-03-10T18:41:58.123Z,2.70
2024-03-10T18:44:25.056Z,2.60
2024-03-10T18:46:51.848Z,2.25
2024-03-10T18:49:18.702Z,2.67
2024-03-10T18:51:45.487Z,2.40
2024-03-10T18:54:12.280Z,2.88
2024-03-10T18:56:41.928Z,2.70
2024-03-10T18:59:08.662Z,2.50
2024-03-10T19:01:35.668Z,2.50
2024-03-10T19:04:02.486Z,2.50
2024-03-10T19:06:29.712Z,3.00
2024-03-10T19:08:56.459Z,2.40
2024-03-10T19:11:23.276Z,3.10
2024-03-10T19:13:50.054Z,2.72
2024-03-10T19:16:16.938Z,2.67
2024-03-10T19:18:46.093Z,2.75
2024-03-10T19:21:13.118Z,2.55
2024-03-10T19:23:40.148Z,2.85
2024-03-10T19:26:08.477Z,2.90
2024-03-10T19:28:38.417Z,2.63
2024-03-10T19:31:05.801Z,2.63
2024-03-10T19:33:33.322Z,2.53
2024-03-10T19:36:00.079Z,2.65
2024-03-10T19:38:27.243Z,2.38
2024-03-10T19:40:54.198Z,2.60
2024-03-10T19:43:21.486Z,2.38
2024-03-10T19:45:48.776Z,2.53
2024-03-10T19:48:18.443Z,2.38
2024-03-10T19:50:50.055Z,1.80
2024-03-10T19:53:17.728Z,1.83
2024-03-10T19:55:50.275Z,1.90
2024-03-10T19:58:17.071Z,2.17
2024-03-10T20:00:43.977Z,2.03
2024-03-10T20:03:10.816Z,1.90
2024-03-10T20:05:37.686Z,1.77
2024-03-10T20:08:04.761Z,2.28
2024-03-10T20:10:35.386Z,2.10
2024-03-10T20:13:02.151Z,2.00
2024-03-10T20:15:29.425Z,1.90
2024-03-10T20:17:56.545Z,2.20
2024-03-10T20:20:24.577Z,2.00
2024-03-10T20:22:55.241Z,2.38
2024-03-10T20:25:26.782Z,2.47
2024-03-10T20:27:54.863Z,2.00
2024-03-10T20:30:21.643Z,1.95
2024-03-10T20:32:48.790Z,2.00
2024-03-10T20:35:16.569Z,2.42
2024-03-10T20:37:43.290Z,2.00
2024-03-10T20:40:10.896Z,2.20
2024-03-10T20:42:37.917Z,2.50
2024-03-10T20:45:04.981Z,2.10
2024-03-10T20:47:34.184Z,2.10
2024-03-10T20:50:00.987Z,2.22
2024-03-10T20:52:27.802Z,2.65
2024-03-10T20:54:54.557Z,4.32
2024-03-10T20:57:21.345Z,2.78
2024-03-10T20:59:48.310Z,2.95
2024-03-10T21:02:17.663Z,2.88
2024-03-10T21:04:45.241Z,2.53
2024-03-10T21:07:14.845Z,3.35
2024-03-10T21:09:42.054Z,2.85
2024-03-10T21:12:09.094Z,2.58
2024-03-10T21:14:35.890Z,2.70
2024-03-10T21:17:04.112Z,2.65
2024-03-10T21:19:30.894Z,2.30
2024-03-10T21:21:57.896Z,3.00
2024-03-10T21:24:24.837Z,2.60
2024-03-10T21:26:51.611Z,2.20
2024-03-10T21:29:18.479Z,2.50
2024-03-10T21:31:45.318Z,2.50
2024-03-10T21:34:12.018Z,2.50
2024-03-10T21:36:38.740Z,2.45
2024-03-10T21:39:07.807Z,3.03
2024-03-10T21:41:34.593Z,2.30
2024-03-10T21:44:01.554Z,2.58
2024-03-10T21:46:30.806Z,2.47
2024-03-10T21:48:57.589Z,2.20
2024-03-10T21:51:26.213Z,2.40
2024-03-10T21:53:55.707Z,2.83
2024-03-10T21:56:22.608Z,2.47
2024-03-10T21:58:49.414Z,3.05
2024-03-10T22:01:16.295Z,3.17
2024-03-10T22:03:43.206Z,2.10
2024-03-10T22:06:11.633Z,2.35
2024-03-10T22:08:38.393Z,2.35
2024-03-10T22:11:05.170Z,2.20
2024-03-10T22:13:31.993Z,3.08
2024-03-10T22:15:58.905Z,2.33
2024-03-10T22:18:25.667Z,2.50
2024-03-10T22:20:52.459Z,2.13
2024-03-10T22:23:19.489Z,2.25
2024-03-10T22:25:48.912Z,2.17
2024-03-10T22:28:15.707Z,2.65
2024-03-10T22:30:44.977Z,1.88
2024-03-10T22:33:11.852Z,2.20
2024-03-10T22:35:38.669Z,1.95
2024-03-10T22:38:05.452Z,2.08
2024-03-10T22:40:35.225Z,2.53
2024-03-10T22:43:02.014Z,2.10
2024-03-10T22:45:31.986Z,2.30
2024-03-10T22:48:03.578Z,3.15
2024-03-10T22:50:30.672Z,2.25
2024-03-10T22:52:57.622Z,2.22
2024-03-10T22:55:24.501Z,2.35
2024-03-10T22:57:54.904Z,2.45
2024-03-10T23:00:22.173Z,2.03
2024-03-10T23:02:51.707Z,2.60
2024-03-10T23:05:19.901Z,2.35
2024-03-10T23:07:46.797Z,1.98
2024-03-10T23:10:13.582Z,2.03
2024-03-10T23:12:44.017Z,1.92
2024-03-10T23:15:11.127Z,1.77
2024-03-10T23:17:38.838Z,2.70
2024-03-10T23:20:07.183Z,2.13
2024-03-10T23:22:34.435Z,2.30
2024-03-10T23:25:01.310Z,2.22
2024-03-10T23:27:30.846Z,2.20
2024-03-10T23:29:57.932Z,2.38
2024-03-10T23:32:25.276Z,2.65
2024-03-10T23:34:53.087Z,2.50
2024-03-10T23:37:20.294Z,2.17
2024-03-10T23:39:47.205Z,1.90
2024-03-10T23:42:14.858Z,2.88
2024-03-10T23:44:41.790Z,2.35
2024-03-10T23:47:09.050Z,2.85
2024-03-10T23:49:36.025Z,2.63
2024-03-10T23:52:02.805Z,3.15
2024-03-10T23:54:29.575Z,3.65
2024-03-10T23:56:59.144Z,2.08
2024-03-10T23:59:25.925Z,2.53
